Stratford, WA (98853)

7:22 AM PDT on July 11, 2014 (GMT -0700)
Adrian (KWASOAPL2) Elev 1201 ft | 47.39 °N, 119.38 °W | Change Station

Current weather conditions updated 8 seconds ago

Clear
Clear
80.4 °F
Feels Like 79 °F
N
5.6
Wind Variable Wind from North
Gusts 7.4 mph

Today is forecast to be nearly the same temperature as yesterday.

Today
High -- | Low -- °F
--% Chance of Precip.
Yesterday
High -- | Low -- °F
Precip. -- in
5:12 AM 8:52 PM
Waxing Gibbous, 99% visible
Pressure 29.89 in
Visibility 10.0 miles
Clouds Clear
Heat Index 79 °F
Dew Point 33 °F
Humidity 18%
Rainfall 0.00 in
Snow Depth Not available.
UV 1 out of 12
Pollen 7.30 out of 12
Air Quality Not available.
Flu Activity Sporadic
METAR KMWH 111352Z 02005KT 10SM CLR 21/03 A2992 RMK AO2 SLP121 T02110033

More Conditions Fewer Conditions

Pressure 29.89 in
Visibility 10.0 miles
Clouds Clear
Heat Index 79 °F
Dew Point 33 °F
Humidity 18%
Rainfall 0.00 in
Snow Depth Not available.
UV 1 out of 12
Pollen 7.30 out of 12
Air Quality Not available.
Flu Activity Sporadic
METAR KMWH 111352Z 02005KT 10SM CLR 21/03 A2992 RMK AO2 SLP121 T02110033

More Conditions Fewer Conditions

10-Day Weather Forecast

Almanac

Astronomy

Jul. 11, 2014 Rise Set
Actual Time 5:12 AM PDT 8:52 PM PDT
Civil Twilight 4:33 AM PDT 9:31 PM PDT
Nautical Twilight 3:40 AM PDT 10:23 PM PDT
Astronomical Twilight 2:26 AM PDT 11:36 PM PDT
Moon 8:01 PM PDT 4:34 AM PDT
Length of Visible Light 16h 58m
Length of Day
15h 40m
Tomorrow will be 1m 36s shorter.
Waxing Gibbous, 99% of the Moon is Illuminated
Today
Waxing Gibbous
Jul 12
Full
Jul 18
Last Quarter
Jul 26
New
Aug 3
First Quarter

Today's Extremes

State Highs State Lows

Community

WunderPhotos

Upload Photos

1,732,483 photos uploaded!

Nearby

Snow Depth

Station Depth Elevation
Trough 0 in 5300 ft
Grouse Camp 0 in 5380 ft
Blewett Pass 0 in 4270 ft
Moses Mountain 1 in 5300 ft
Sasse Ridge 0 in 4200 ft

Earthquake Activity

City Distance Mag. Time & Date
No recent earthquake activity has been reported nearby.
Minimum magnitude displayed is 2.5.

Coastal Water Temperatures

Place Temperature
No Stations Reporting

Nearby Weather Stations

Station Location Temp. Heat Index Dew Point Humidity Wind Precip. Elev Updated Type
Adrian, Soap Lake, WA 80.4 °F 79 °F 33 °F 18% North  at  5.6 mph 0.00 in / hr 1201 ft 7:22 AM PDT Rapid Fire
Civic Center, Moses Lake, WA 69.0 °F - 47 °F 45% SW  at  0.0 mph 0.00 in / hr 1050 ft 7:22 AM PDT Rapid Fire
COM - Winchester, Ephrata, WA 76.0 °F 77 °F 38 °F 25% ESE  at  5.8 mph 0.00 in / hr 1344 ft 7:22 AM PDT Rapid Fire
www.mlrcm.org, Moses Lake, WA 69.1 °F - 46 °F 44% WNW  at  3.7 mph 0.00 in / hr 1158 ft 7:22 AM PDT Rapid Fire
Ephrata, WA 77.4 °F 77 °F 38 °F 24% NNE  at  26.0 mph 0.00 in / hr 1286 ft 7:22 AM PDT Rapid Fire
Winchester, Quincy, WA 76.3 °F 77 °F 40 °F 27% North  at  13.0 mph 0.00 in / hr 1350 ft 7:20 AM PDT Normal

Show More Stations Show Fewer Stations